Phyllis Dunlap — WDA6552 — position and weather

sailwx.info

Track history (hours):
 
Tides and Currents Weather Stations Pressure Air Temp Water Temp Dewpoint Dewpoint Depression Visibility Wind Speed Wind Dir Waves Ship Positions

Phyllis Dunlap

Owner: DUNLAP TOWING CO, LA CONNER, WA. More information available from US FCC via Universal Licensing System and Coast Guard Vessel Documentation Center.

Last reported at 2017-Nov-18 21:07 UTC. Time now 2017-Dec-11 23:03 UTC.
Position N 48°21' W 125°08'.
Warning: this ship's position is 23 days out of date.

Type: . MMSI: 366833610.

Date/timePositionNaut miles runAvg speedWind from/ knotsBaromVisibWave heightAir tempDewpointWater temp
2017-Nov-18 21:07N 48°21' W 125°08'1 7.4
2017-Nov-18 20:58N 48°21' W 125°07'4 7.3
2017-Nov-18 20:27N 48°23' W 125°02'3 7.2
2017-Nov-18 20:00N 48°25' W 124°58'4 7.7
2017-Nov-18 19:27N 48°27' W 124°52'4 9.1
2017-Nov-18 19:00N 48°27' W 124°46'510.3
2017-Nov-18 18:30N 48°25' W 124°39'611.1
2017-Nov-18 18:01N 48°23' W 124°31'610.9
2017-Nov-18 17:30N 48°21' W 124°23'510.9
2017-Nov-18 17:00N 48°18' W 124°16'610.1
2017-Nov-18 16:27N 48°16' W 124°09'5 9.2
2017-Nov-18 15:57N 48°14' W 124°02'3 7.8
2017-Nov-18 15:29N 48°12' W 123°58'510.1
2017-Nov-18 15:01N 48°12' W 123°50'510.5
2017-Nov-18 14:30N 48°12' W 123°42'5 9.9
2017-Nov-18 14:00N 48°12' W 123°35'4 9.2
2017-Nov-18 13:30N 48°12' W 123°28'4 8.5
2017-Nov-18 13:00N 48°12' W 123°22'4 8.4
2017-Nov-18 12:30N 48°12' W 123°15'4 8.4
2017-Nov-18 12:00N 48°13' W 123°09'4 7.3
2017-Nov-18 11:30N 48°13' W 123°03'4 8.0
2017-Nov-18 10:57N 48°12' W 122°57'17 6.6
2017-Nov-18 08:23N 48°02' W 122°37'3 8.7
2017-Nov-18 07:59N 47°59' W 122°35'4 9.2
2017-Nov-18 07:31N 47°56' W 122°30'5 9.9
2017-Nov-18 07:00N 47°51' W 122°27'510.4
2017-Nov-18 06:30N 47°46' W 122°26'510.6
2017-Nov-18 06:00N 47°41' W 122°27'4 8.8
2017-Nov-18 05:30N 47°37' W 122°24'1 2.4
2017-Nov-18 05:00N 47°37' W 122°22'1 1.2
2017-Nov-18 04:30N 47°36' W 122°22'1 1.1
2017-Nov-18 04:01N 47°36' W 122°21'0 0.9
2017-Nov-18 03:30N 47°35' W 122°21'0 0.0
2017-Nov-18 03:01N 47°35' W 122°21'0 0.0
2017-Nov-18 02:30N 47°35' W 122°21'0 0.0
2017-Nov-18 02:00N 47°35' W 122°21'0 0.0
2017-Nov-18 01:30N 47°35' W 122°21'0 0.0
2017-Nov-18 01:00N 47°35' W 122°21'0 0.0
2017-Nov-18 00:30N 47°35' W 122°21'0 0.0
2017-Nov-18 00:00N 47°35' W 122°21'0 0.3
2017-Nov-17 23:30N 47°35' W 122°21'3 6.5
2017-Nov-17 23:01N 47°37' W 122°25'611.9
2017-Nov-17 22:30N 47°43' W 122°26'612.5
2017-Nov-17 22:01N 47°50' W 122°24'712.9
2017-Nov-17 21:30N 47°55' W 122°20'611.2
2017-Nov-17 21:00N 47°59' W 122°14'0 0.9
2017-Nov-17 20:30N 47°59' W 122°13'0 0.0
2017-Nov-17 20:00N 47°59' W 122°13'0 0.0
2017-Nov-17 19:30N 47°59' W 122°13'0 0.0
2017-Nov-17 19:00N 47°59' W 122°13'  
2017-Nov-14 20:15N 47°59' W 122°13'0 0.0
2017-Nov-14 20:00N 47°59' W 122°13'3 5.9
2017-Nov-14 19:30N 47°58' W 122°17'713.6
2017-Nov-14 19:00N 47°52' W 122°23'713.3
2017-Nov-14 18:31N 47°46' W 122°25'713.6
2017-Nov-14 18:01N 47°39' W 122°27'4 8.5
2017-Nov-14 17:30N 47°36' W 122°22'0 0.6
2017-Nov-14 17:00N 47°36' W 122°23'4 7.2
2017-Nov-14 16:31N 47°38' W 122°27'4 8.8
2017-Nov-14 16:01N 47°43' W 122°28'5 9.9
2017-Nov-14 15:30N 47°48' W 122°28'5 9.8
2017-Nov-14 15:01N 47°52' W 122°29'4 8.9
2017-Nov-14 14:30N 47°56' W 122°33'4 8.1
2017-Nov-14 13:58N 47°59' W 122°37'21 7.6
2017-Nov-14 11:09N 48°12' W 123°03'310.7
2017-Nov-14 10:54N 48°12' W 123°07'510.6
2017-Nov-14 10:28N 48°12' W 123°14'510.7
2017-Nov-14 09:59N 48°12' W 123°22'510.8
2017-Nov-14 09:30N 48°12' W 123°30'511.0
2017-Nov-14 09:00N 48°12' W 123°38'510.7
2017-Nov-14 08:31N 48°12' W 123°46'612.3
2017-Nov-14 07:59N 48°12' W 123°55'612.8
2017-Nov-14 07:30N 48°15' W 124°04'5 9.8
2017-Nov-14 07:00N 48°17' W 124°10'612.2
2017-Nov-14 06:31N 48°20' W 124°19'612.9
2017-Nov-14 06:01N 48°22' W 124°27'612.6
2017-Nov-14 05:31N 48°25' W 124°36'611.5
2017-Nov-14 05:00N 48°27' W 124°44'510.6
2017-Nov-14 04:31N 48°26' W 124°52'5 9.3
2017-Nov-14 04:00N 48°25' W 124°59'  
Track history (hours):
 
Tides and Currents Weather Stations Pressure Air Temp Water Temp Dewpoint Dewpoint Depression Visibility Wind Speed Wind Dir Waves Ship Positions

Phyllis Dunlap

Owner: DUNLAP TOWING CO, LA CONNER, WA. More information available from US FCC via Universal Licensing System and Coast Guard Vessel Documentation Center.

Last reported at 2017-Nov-18 21:07 UTC. Time now 2017-Dec-11 23:03 UTC.
Position N 48°21' W 125°08'.
Warning: this ship's position is 23 days out of date.

Type: . MMSI: 366833610.

Date/timePositionNaut miles runAvg speedWind from/ knotsBaromVisibWave heightAir tempDewpointWater temp
2017-Nov-18 21:07N 48°21' W 125°08'1 7.4
2017-Nov-18 20:58N 48°21' W 125°07'4 7.3
2017-Nov-18 20:27N 48°23' W 125°02'3 7.2
2017-Nov-18 20:00N 48°25' W 124°58'4 7.7
2017-Nov-18 19:27N 48°27' W 124°52'4 9.1
2017-Nov-18 19:00N 48°27' W 124°46'510.3
2017-Nov-18 18:30N 48°25' W 124°39'611.1
2017-Nov-18 18:01N 48°23' W 124°31'610.9
2017-Nov-18 17:30N 48°21' W 124°23'510.9
2017-Nov-18 17:00N 48°18' W 124°16'610.1
2017-Nov-18 16:27N 48°16' W 124°09'5 9.2
2017-Nov-18 15:57N 48°14' W 124°02'3 7.8
2017-Nov-18 15:29N 48°12' W 123°58'510.1
2017-Nov-18 15:01N 48°12' W 123°50'510.5
2017-Nov-18 14:30N 48°12' W 123°42'5 9.9
2017-Nov-18 14:00N 48°12' W 123°35'4 9.2
2017-Nov-18 13:30N 48°12' W 123°28'4 8.5
2017-Nov-18 13:00N 48°12' W 123°22'4 8.4
2017-Nov-18 12:30N 48°12' W 123°15'4 8.4
2017-Nov-18 12:00N 48°13' W 123°09'4 7.3
2017-Nov-18 11:30N 48°13' W 123°03'4 8.0
2017-Nov-18 10:57N 48°12' W 122°57'17 6.6
2017-Nov-18 08:23N 48°02' W 122°37'3 8.7
2017-Nov-18 07:59N 47°59' W 122°35'4 9.2
2017-Nov-18 07:31N 47°56' W 122°30'5 9.9
2017-Nov-18 07:00N 47°51' W 122°27'510.4
2017-Nov-18 06:30N 47°46' W 122°26'510.6
2017-Nov-18 06:00N 47°41' W 122°27'4 8.8
2017-Nov-18 05:30N 47°37' W 122°24'1 2.4
2017-Nov-18 05:00N 47°37' W 122°22'1 1.2
2017-Nov-18 04:30N 47°36' W 122°22'1 1.1
2017-Nov-18 04:01N 47°36' W 122°21'0 0.9
2017-Nov-18 03:30N 47°35' W 122°21'0 0.0
2017-Nov-18 03:01N 47°35' W 122°21'0 0.0
2017-Nov-18 02:30N 47°35' W 122°21'0 0.0
2017-Nov-18 02:00N 47°35' W 122°21'0 0.0
2017-Nov-18 01:30N 47°35' W 122°21'0 0.0
2017-Nov-18 01:00N 47°35' W 122°21'0 0.0
2017-Nov-18 00:30N 47°35' W 122°21'0 0.0
2017-Nov-18 00:00N 47°35' W 122°21'0 0.3
2017-Nov-17 23:30N 47°35' W 122°21'3 6.5
2017-Nov-17 23:01N 47°37' W 122°25'611.9
2017-Nov-17 22:30N 47°43' W 122°26'612.5
2017-Nov-17 22:01N 47°50' W 122°24'712.9
2017-Nov-17 21:30N 47°55' W 122°20'611.2
2017-Nov-17 21:00N 47°59' W 122°14'0 0.9
2017-Nov-17 20:30N 47°59' W 122°13'0 0.0
2017-Nov-17 20:00N 47°59' W 122°13'0 0.0
2017-Nov-17 19:30N 47°59' W 122°13'0 0.0
2017-Nov-17 19:00N 47°59' W 122°13'  
2017-Nov-14 20:15N 47°59' W 122°13'0 0.0
2017-Nov-14 20:00N 47°59' W 122°13'3 5.9
2017-Nov-14 19:30N 47°58' W 122°17'713.6
2017-Nov-14 19:00N 47°52' W 122°23'713.3
2017-Nov-14 18:31N 47°46' W 122°25'713.6
2017-Nov-14 18:01N 47°39' W 122°27'4 8.5
2017-Nov-14 17:30N 47°36' W 122°22'0 0.6
2017-Nov-14 17:00N 47°36' W 122°23'4 7.2
2017-Nov-14 16:31N 47°38' W 122°27'4 8.8
2017-Nov-14 16:01N 47°43' W 122°28'5 9.9
2017-Nov-14 15:30N 47°48' W 122°28'5 9.8
2017-Nov-14 15:01N 47°52' W 122°29'4 8.9
2017-Nov-14 14:30N 47°56' W 122°33'4 8.1
2017-Nov-14 13:58N 47°59' W 122°37'21 7.6
2017-Nov-14 11:09N 48°12' W 123°03'310.7
2017-Nov-14 10:54N 48°12' W 123°07'510.6
2017-Nov-14 10:28N 48°12' W 123°14'510.7
2017-Nov-14 09:59N 48°12' W 123°22'510.8
2017-Nov-14 09:30N 48°12' W 123°30'511.0
2017-Nov-14 09:00N 48°12' W 123°38'510.7
2017-Nov-14 08:31N 48°12' W 123°46'612.3
2017-Nov-14 07:59N 48°12' W 123°55'612.8
2017-Nov-14 07:30N 48°15' W 124°04'5 9.8
2017-Nov-14 07:00N 48°17' W 124°10'612.2
2017-Nov-14 06:31N 48°20' W 124°19'612.9
2017-Nov-14 06:01N 48°22' W 124°27'612.6
2017-Nov-14 05:31N 48°25' W 124°36'611.5
2017-Nov-14 05:00N 48°27' W 124°44'510.6
2017-Nov-14 04:31N 48°26' W 124°52'5 9.3
2017-Nov-14 04:00N 48°25' W 124°59'  

Dump ship's entire track history